sensor_id;sensor_type;location;lat;lon;timestamp;pressure;altitude;pressure_sealevel;temperature;humidity
44926;BME280;30662;51.210;7.656;2023-04-08T00:01:41;150296.81;;;5.96;100.00
44926;BME280;30662;51.210;7.656;2023-04-08T00:04:07;150325.81;;;6.08;100.00
44926;BME280;30662;51.210;7.656;2023-04-08T00:06:34;150333.41;;;6.11;100.00
44926;BME280;30662;51.210;7.656;2023-04-08T00:09:00;150328.38;;;6.09;100.00
44926;BME280;30662;51.210;7.656;2023-04-08T00:11:26;150327.13;;;6.08;100.00
44926;BME280;30662;51.210;7.656;2023-04-08T00:13:52;150309.47;;;6.01;100.00
44926;BME280;30662;51.210;7.656;2023-04-08T00:16:18;150319.53;;;6.05;100.00
44926;BME280;30662;51.210;7.656;2023-04-08T00:18:44;150332.16;;;6.11;100.00
44926;BME280;30662;51.210;7.656;2023-04-08T00:21:10;150334.66;;;6.12;100.00
44926;BME280;30662;51.210;7.656;2023-04-08T00:23:36;150347.31;;;6.17;100.00
44926;BME280;30662;51.210;7.656;2023-04-08T00:26:02;150343.47;;;6.15;100.00
44926;BME280;30662;51.210;7.656;2023-04-08T00:28:28;150357.38;;;6.21;100.00
44926;BME280;30662;51.210;7.656;2023-04-08T00:30:54;150334.66;;;6.12;100.00
44926;BME280;30662;51.210;7.656;2023-04-08T00:33:20;150334.66;;;6.12;100.00
44926;BME280;30662;51.210;7.656;2023-04-08T00:35:47;150338.44;;;6.13;100.00
44926;BME280;30662;51.210;7.656;2023-04-08T00:38:13;150342.22;;;6.15;100.00
44926;BME280;30662;51.210;7.656;2023-04-08T00:40:39;150340.97;;;6.14;100.00
44926;BME280;30662;51.210;7.656;2023-04-08T00:43:05;150337.19;;;6.13;100.00
44926;BME280;30662;51.210;7.656;2023-04-08T00:45:32;150332.16;;;6.11;100.00
44926;BME280;30662;51.210;7.656;2023-04-08T00:47:58;150309.47;;;6.01;100.00
44926;BME280;30662;51.210;7.656;2023-04-08T00:50:25;150293.06;;;5.95;100.00
44926;BME280;30662;51.210;7.656;2023-04-08T00:52:51;150290.47;;;5.94;100.00
44926;BME280;30662;51.210;7.656;2023-04-08T00:55:17;150298.09;;;5.97;100.00
44926;BME280;30662;51.210;7.656;2023-04-08T00:57:43;150289.22;;;5.93;100.00
44926;BME280;30662;51.210;7.656;2023-04-08T01:00:10;150276.59;;;5.88;100.00
44926;BME280;30662;51.210;7.656;2023-04-08T01:05:29;150267.75;;;5.85;100.00
44926;BME280;30662;51.210;7.656;2023-04-08T01:08:01;150290.47;;;5.94;100.00
44926;BME280;30662;51.210;7.656;2023-04-08T01:10:33;150290.47;;;5.94;100.00
44926;BME280;30662;51.210;7.656;2023-04-08T01:13:03;150270.25;;;5.86;100.00
44926;BME280;30662;51.210;7.656;2023-04-08T01:15:32;150269.00;;;5.85;100.00
44926;BME280;30662;51.210;7.656;2023-04-08T01:18:05;150274.09;;;5.87;100.00
44926;BME280;30662;51.210;7.656;2023-04-08T01:20:32;150271.50;;;5.86;100.00
44926;BME280;30662;51.210;7.656;2023-04-08T01:25:33;150263.97;;;5.83;100.00
44926;BME280;30662;51.210;7.656;2023-04-08T01:28:02;150275.34;;;5.88;100.00
44926;BME280;30662;51.210;7.656;2023-04-08T01:30:28;150277.84;;;5.89;100.00
44926;BME280;30662;51.210;7.656;2023-04-08T01:32:56;150265.22;;;5.84;100.00
44926;BME280;30662;51.210;7.656;2023-04-08T01:35:24;150271.50;;;5.86;100.00
44926;BME280;30662;51.210;7.656;2023-04-08T01:37:51;150265.22;;;5.84;100.00
44926;BME280;30662;51.210;7.656;2023-04-08T01:40:18;150290.47;;;5.94;100.00
44926;BME280;30662;51.210;7.656;2023-04-08T01:42:46;150290.47;;;5.94;100.00
44926;BME280;30662;51.210;7.656;2023-04-08T01:45:13;150289.22;;;5.93;100.00
44926;BME280;30662;51.210;7.656;2023-04-08T01:47:41;150287.97;;;5.93;100.00
44926;BME280;30662;51.210;7.656;2023-04-08T01:50:09;150308.16;;;6.01;100.00
44926;BME280;30662;51.210;7.656;2023-04-08T01:52:37;150298.09;;;5.97;100.00
44926;BME280;30662;51.210;7.656;2023-04-08T01:55:05;150271.50;;;5.86;100.00
44926;BME280;30662;51.210;7.656;2023-04-08T01:57:34;150275.34;;;5.88;100.00
44926;BME280;30662;51.210;7.656;2023-04-08T02:00:07;150255.16;;;5.79;100.00
44926;BME280;30662;51.210;7.656;2023-04-08T02:02:35;150247.56;;;5.76;100.00
44926;BME280;30662;51.210;7.656;2023-04-08T02:05:01;150255.16;;;5.79;100.00
44926;BME280;30662;51.210;7.656;2023-04-08T02:07:27;150198.38;;;5.57;100.00
44926;BME280;30662;51.210;7.656;2023-04-08T02:09:55;150227.41;;;5.68;100.00
44926;BME280;30662;51.210;7.656;2023-04-08T02:12:21;150228.66;;;5.69;100.00
44926;BME280;30662;51.210;7.656;2023-04-08T02:14:47;150236.19;;;5.72;100.00
44926;BME280;30662;51.210;7.656;2023-04-08T02:17:22;150246.31;;;5.76;100.00
44926;BME280;30662;51.210;7.656;2023-04-08T02:19:55;150237.50;;;5.72;100.00
44926;BME280;30662;51.210;7.656;2023-04-08T02:22:33;150234.94;;;5.71;100.00
44926;BME280;30662;51.210;7.656;2023-04-08T02:25:03;150232.41;;;5.70;100.00
44926;BME280;30662;51.210;7.656;2023-04-08T02:27:33;150243.78;;;5.75;100.00
44926;BME280;30662;51.210;7.656;2023-04-08T02:30:01;150226.13;;;5.68;100.00
44926;BME280;30662;51.210;7.656;2023-04-08T02:32:30;150207.22;;;5.60;100.00
44926;BME280;30662;51.210;7.656;2023-04-08T02:34:58;150224.88;;;5.67;100.00
44926;BME280;30662;51.210;7.656;2023-04-08T02:37:27;150205.97;;;5.60;100.00
44926;BME280;30662;51.210;7.656;2023-04-08T02:39:53;150198.38;;;5.57;100.00
44926;BME280;30662;51.210;7.656;2023-04-08T02:42:19;150204.69;;;5.59;100.00
44926;BME280;30662;51.210;7.656;2023-04-08T02:44:45;150180.72;;;5.49;100.00
44926;BME280;30662;51.210;7.656;2023-04-08T02:47:11;150195.84;;;5.56;100.00
44926;BME280;30662;51.210;7.656;2023-04-08T02:49:36;150179.44;;;5.49;100.00
44926;BME280;30662;51.210;7.656;2023-04-08T02:52:02;150189.56;;;5.53;100.00
44926;BME280;30662;51.210;7.656;2023-04-08T02:54:29;150190.81;;;5.53;100.00
44926;BME280;30662;51.210;7.656;2023-04-08T02:56:55;150194.59;;;5.55;100.00
44926;BME280;30662;51.210;7.656;2023-04-08T02:59:22;150202.19;;;5.58;100.00
44926;BME280;30662;51.210;7.656;2023-04-08T03:01:48;150176.94;;;5.48;100.00
44926;BME280;30662;51.210;7.656;2023-04-08T03:04:14;150170.66;;;5.45;100.00
44926;BME280;30662;51.210;7.656;2023-04-08T03:06:40;150174.41;;;5.47;100.00
44926;BME280;30662;51.210;7.656;2023-04-08T03:09:06;150197.09;;;5.56;100.00
44926;BME280;30662;51.210;7.656;2023-04-08T03:11:32;150179.44;;;5.49;100.00
44926;BME280;30662;51.210;7.656;2023-04-08T03:13:58;150176.94;;;5.48;100.00
44926;BME280;30662;51.210;7.656;2023-04-08T03:16:25;150190.81;;;5.53;100.00
44926;BME280;30662;51.210;7.656;2023-04-08T03:18:51;150121.47;;;5.25;100.00
44926;BME280;30662;51.210;7.656;2023-04-08T03:21:18;150146.66;;;5.36;100.00
44926;BME280;30662;51.210;7.656;2023-04-08T03:23:44;150159.28;;;5.41;100.00
44926;BME280;30662;51.210;7.656;2023-04-08T03:26:10;150160.53;;;5.41;100.00
44926;BME280;30662;51.210;7.656;2023-04-08T03:28:36;150126.47;;;5.28;100.00
44926;BME280;30662;51.210;7.656;2023-04-08T03:31:03;150101.28;;;5.17;100.00
44926;BME280;30662;51.210;7.656;2023-04-08T03:33:29;150067.25;;;5.04;100.00
44926;BME280;30662;51.210;7.656;2023-04-08T03:35:55;150044.56;;;4.94;100.00
44926;BME280;30662;51.210;7.656;2023-04-08T03:38:21;150072.28;;;5.06;100.00
44926;BME280;30662;51.210;7.656;2023-04-08T03:40:47;150093.75;;;5.14;100.00
44926;BME280;30662;51.210;7.656;2023-04-08T03:43:13;150088.66;;;5.12;100.00
44926;BME280;30662;51.210;7.656;2023-04-08T03:45:39;150068.50;;;5.04;100.00
44926;BME280;30662;51.210;7.656;2023-04-08T03:48:06;150072.28;;;5.06;100.00
44926;BME280;30662;51.210;7.656;2023-04-08T03:50:32;150073.53;;;5.06;100.00
44926;BME280;30662;51.210;7.656;2023-04-08T03:52:58;150065.97;;;5.03;100.00
44926;BME280;30662;51.210;7.656;2023-04-08T03:55:24;150059.69;;;5.01;100.00
44926;BME280;30662;51.210;7.656;2023-04-08T03:57:50;150067.25;;;5.04;100.00
44926;BME280;30662;51.210;7.656;2023-04-08T04:00:17;150087.41;;;5.12;100.00
44926;BME280;30662;51.210;7.656;2023-04-08T04:02:43;150103.81;;;5.18;100.00
44926;BME280;30662;51.210;7.656;2023-04-08T04:05:10;150073.53;;;5.06;100.00
44926;BME280;30662;51.210;7.656;2023-04-08T04:07:36;150052.09;;;4.97;100.00
44926;BME280;30662;51.210;7.656;2023-04-08T04:10:02;150033.19;;;4.90;100.00
44926;BME280;30662;51.210;7.656;2023-04-08T04:12:28;150015.56;;;4.83;100.00
44926;BME280;30662;51.210;7.656;2023-04-08T04:14:54;150039.50;;;4.92;100.00
44926;BME280;30662;51.210;7.656;2023-04-08T04:17:20;150025.66;;;4.87;100.00
44926;BME280;30662;51.210;7.656;2023-04-08T04:19:46;150042.06;;;4.93;100.00
44926;BME280;30662;51.210;7.656;2023-04-08T04:22:12;150030.69;;;4.89;100.00
44926;BME280;30662;51.210;7.656;2023-04-08T04:24:38;150013.03;;;4.82;100.00
44926;BME280;30662;51.210;7.656;2023-04-08T04:27:04;150021.88;;;4.85;100.00
44926;BME280;30662;51.210;7.656;2023-04-08T04:29:30;150018.06;;;4.84;100.00
44926;BME280;30662;51.210;7.656;2023-04-08T04:31:56;149977.75;;;4.67;100.00
44926;BME280;30662;51.210;7.656;2023-04-08T04:34:22;149970.22;;;4.64;100.00
44926;BME280;30662;51.210;7.656;2023-04-08T04:36:48;149985.28;;;4.70;100.00
44926;BME280;30662;51.210;7.656;2023-04-08T04:39:14;150000.41;;;4.77;100.00
44926;BME280;30662;51.210;7.656;2023-04-08T04:41:40;150000.41;;;4.77;100.00
44926;BME280;30662;51.210;7.656;2023-04-08T04:44:06;149992.88;;;4.74;100.00
44926;BME280;30662;51.210;7.656;2023-04-08T04:46:32;149985.28;;;4.70;100.00
44926;BME280;30662;51.210;7.656;2023-04-08T04:48:58;149975.22;;;4.66;100.00
44926;BME280;30662;51.210;7.656;2023-04-08T04:51:24;149972.72;;;4.65;100.00
44926;BME280;30662;51.210;7.656;2023-04-08T04:53:51;149965.13;;;4.62;100.00
44926;BME280;30662;51.210;7.656;2023-04-08T04:56:17;149966.38;;;4.63;100.00
44926;BME280;30662;51.210;7.656;2023-04-08T04:58:43;149960.09;;;4.60;100.00
44926;BME280;30662;51.210;7.656;2023-04-08T05:01:09;149965.13;;;4.62;100.00
44926;BME280;30662;51.210;7.656;2023-04-08T05:03:35;149994.13;;;4.74;100.00
44926;BME280;30662;51.210;7.656;2023-04-08T05:06:01;150020.59;;;4.85;100.00
44926;BME280;30662;51.210;7.656;2023-04-08T05:08:27;150018.06;;;4.84;100.00
44926;BME280;30662;51.210;7.656;2023-04-08T05:10:53;150039.50;;;4.92;100.00
44926;BME280;30662;51.210;7.656;2023-04-08T05:13:20;150030.69;;;4.89;100.00
44926;BME280;30662;51.210;7.656;2023-04-08T05:15:46;150040.78;;;4.93;100.00
44926;BME280;30662;51.210;7.656;2023-04-08T05:18:13;150055.88;;;4.99;100.00
44926;BME280;30662;51.210;7.656;2023-04-08T05:20:39;150031.94;;;4.89;100.00
44926;BME280;30662;51.210;7.656;2023-04-08T05:23:05;150044.56;;;4.94;100.00
44926;BME280;30662;51.210;7.656;2023-04-08T05:25:32;150036.97;;;4.91;100.00
44926;BME280;30662;51.210;7.656;2023-04-08T05:27:58;150058.44;;;5.00;100.00
44926;BME280;30662;51.210;7.656;2023-04-08T05:30:24;150068.50;;;5.04;100.00
44926;BME280;30662;51.210;7.656;2023-04-08T05:32:50;150083.63;;;5.10;100.00
44926;BME280;30662;51.210;7.656;2023-04-08T05:35:16;150096.25;;;5.15;100.00
44926;BME280;30662;51.210;7.656;2023-04-08T05:37:41;150076.09;;;5.07;100.00
44926;BME280;30662;51.210;7.656;2023-04-08T05:40:08;150093.75;;;5.14;100.00
44926;BME280;30662;51.210;7.656;2023-04-08T05:42:34;150102.53;;;5.18;100.00
44926;BME280;30662;51.210;7.656;2023-04-08T05:45:00;150100.03;;;5.17;100.00
44926;BME280;30662;51.210;7.656;2023-04-08T05:47:26;150101.28;;;5.17;100.00
44926;BME280;30662;51.210;7.656;2023-04-08T05:49:53;150106.31;;;5.19;100.00
44926;BME280;30662;51.210;7.656;2023-04-08T05:52:19;150115.16;;;5.23;100.00
44926;BME280;30662;51.210;7.656;2023-04-08T05:54:45;150120.19;;;5.25;100.00
44926;BME280;30662;51.210;7.656;2023-04-08T05:57:11;150144.13;;;5.35;100.00
44926;BME280;30662;51.210;7.656;2023-04-08T05:59:37;150153.00;;;5.38;100.00
44926;BME280;30662;51.210;7.656;2023-04-08T06:02:03;150145.41;;;5.35;100.00
44926;BME280;30662;51.210;7.656;2023-04-08T06:04:29;150139.09;;;5.33;100.00
44926;BME280;30662;51.210;7.656;2023-04-08T06:07:00;150134.06;;;5.31;100.00
44926;BME280;30662;51.210;7.656;2023-04-08T06:09:27;150147.97;;;5.36;100.00
44926;BME280;30662;51.210;7.656;2023-04-08T06:11:53;150180.72;;;5.49;100.00
44926;BME280;30662;51.210;7.656;2023-04-08T06:14:19;150184.53;;;5.51;100.00
44926;BME280;30662;51.210;7.656;2023-04-08T06:16:45;150181.97;;;5.50;100.00
44926;BME280;30662;51.210;7.656;2023-04-08T06:19:11;150195.84;;;5.56;100.00
44926;BME280;30662;51.210;7.656;2023-04-08T06:21:37;150193.34;;;5.54;100.00
44926;BME280;30662;51.210;7.656;2023-04-08T06:24:03;150214.75;;;5.63;100.00
44926;BME280;30662;51.210;7.656;2023-04-08T06:26:34;150222.34;;;5.66;100.00
44926;BME280;30662;51.210;7.656;2023-04-08T06:29:00;150217.28;;;5.64;100.00
44926;BME280;30662;51.210;7.656;2023-04-08T06:31:26;150219.84;;;5.65;100.00
44926;BME280;30662;51.210;7.656;2023-04-08T06:33:52;150214.75;;;5.63;100.00
44926;BME280;30662;51.210;7.656;2023-04-08T06:36:18;150218.53;;;5.65;100.00
44926;BME280;30662;51.210;7.656;2023-04-08T06:38:44;150241.28;;;5.74;100.00
44926;BME280;30662;51.210;7.656;2023-04-08T06:41:10;150250.09;;;5.77;100.00
44926;BME280;30662;51.210;7.656;2023-04-08T06:43:36;150261.44;;;5.82;100.00
44926;BME280;30662;51.210;7.656;2023-04-08T06:46:02;150234.94;;;5.71;100.00
44926;BME280;30662;51.210;7.656;2023-04-08T06:48:28;150247.56;;;5.76;100.00
44926;BME280;30662;51.210;7.656;2023-04-08T06:50:59;150266.50;;;5.84;100.00
44926;BME280;30662;51.210;7.656;2023-04-08T06:53:26;150277.84;;;5.89;100.00
44926;BME280;30662;51.210;7.656;2023-04-08T06:55:57;150293.06;;;5.95;100.00
44926;BME280;30662;51.210;7.656;2023-04-08T06:58:23;150287.97;;;5.93;100.00
44926;BME280;30662;51.210;7.656;2023-04-08T07:00:49;150261.44;;;5.82;100.00
44926;BME280;30662;51.210;7.656;2023-04-08T07:03:15;150281.63;;;5.90;100.00
44926;BME280;30662;51.210;7.656;2023-04-08T07:05:42;150276.59;;;5.88;100.00
44926;BME280;30662;51.210;7.656;2023-04-08T07:08:08;150298.09;;;5.97;100.00
44926;BME280;30662;51.210;7.656;2023-04-08T07:10:34;150315.75;;;6.04;100.00
44926;BME280;30662;51.210;7.656;2023-04-08T07:13:00;150324.56;;;6.07;100.00
44926;BME280;30662;51.210;7.656;2023-04-08T07:15:26;150323.28;;;6.07;100.00
44926;BME280;30662;51.210;7.656;2023-04-08T07:17:52;150333.41;;;6.11;100.00
44926;BME280;30662;51.210;7.656;2023-04-08T07:20:24;150334.66;;;6.12;100.00
44926;BME280;30662;51.210;7.656;2023-04-08T07:22:51;150368.75;;;6.25;100.00
44926;BME280;30662;51.210;7.656;2023-04-08T07:25:17;150385.16;;;6.32;100.00
44926;BME280;30662;51.210;7.656;2023-04-08T07:27:43;150388.94;;;6.33;100.00
44926;BME280;30662;51.210;7.656;2023-04-08T07:30:09;150354.84;;;6.20;100.00
44926;BME280;30662;51.210;7.656;2023-04-08T07:32:35;150375.03;;;6.28;100.00
44926;BME280;30662;51.210;7.656;2023-04-08T07:35:02;150401.56;;;6.39;100.00
44926;BME280;30662;51.210;7.656;2023-04-08T07:37:28;150390.19;;;6.34;100.00
44926;BME280;30662;51.210;7.656;2023-04-08T07:39:54;150378.81;;;6.29;100.00
44926;BME280;30662;51.210;7.656;2023-04-08T07:42:20;150376.28;;;6.28;100.00
44926;BME280;30662;51.210;7.656;2023-04-08T07:44:46;150382.63;;;6.31;100.00
44926;BME280;30662;51.210;7.656;2023-04-08T07:47:12;150420.50;;;6.46;100.00
44926;BME280;30662;51.210;7.656;2023-04-08T07:49:38;150406.59;;;6.41;100.00
44926;BME280;30662;51.210;7.656;2023-04-08T07:52:05;150417.97;;;6.45;100.00
44926;BME280;30662;51.210;7.656;2023-04-08T07:54:31;150465.91;;;6.64;100.00
44926;BME280;30662;51.210;7.656;2023-04-08T07:57:01;150468.41;;;6.66;100.00
44926;BME280;30662;51.210;7.656;2023-04-08T07:59:27;150472.25;;;6.67;100.00
44926;BME280;30662;51.210;7.656;2023-04-08T08:01:54;150472.25;;;6.67;100.00
44926;BME280;30662;51.210;7.656;2023-04-08T08:04:20;150523.97;;;6.88;100.00
44926;BME280;30662;51.210;7.656;2023-04-08T08:06:46;150553.00;;;7.00;100.00
44926;BME280;30662;51.210;7.656;2023-04-08T08:09:12;150544.19;;;6.96;100.00
44926;BME280;30662;51.210;7.656;2023-04-08T08:11:38;150575.72;;;7.09;100.00
44926;BME280;30662;51.210;7.656;2023-04-08T08:14:04;150566.91;;;7.05;100.00
44926;BME280;30662;51.210;7.656;2023-04-08T08:16:31;150593.41;;;7.16;100.00
44926;BME280;30662;51.210;7.656;2023-04-08T08:18:58;150555.53;;;7.01;100.00
44926;BME280;30662;51.210;7.656;2023-04-08T08:21:24;150542.94;;;6.96;100.00
44926;BME280;30662;51.210;7.656;2023-04-08T08:23:51;150561.88;;;7.03;100.00
44926;BME280;30662;51.210;7.656;2023-04-08T08:26:19;150560.63;;;7.03;100.00
44926;BME280;30662;51.210;7.656;2023-04-08T08:28:46;150517.66;;;6.85;100.00
44926;BME280;30662;51.210;7.656;2023-04-08T08:31:11;150541.63;;;6.95;100.00
44926;BME280;30662;51.210;7.656;2023-04-08T08:33:38;150553.00;;;7.00;100.00
44926;BME280;30662;51.210;7.656;2023-04-08T08:36:04;150527.78;;;6.89;100.00
44926;BME280;30662;51.210;7.656;2023-04-08T08:38:31;150530.31;;;6.90;100.00
44926;BME280;30662;51.210;7.656;2023-04-08T08:40:58;150521.44;;;6.87;100.00
44926;BME280;30662;51.210;7.656;2023-04-08T08:43:25;150525.25;;;6.88;100.00
44926;BME280;30662;51.210;7.656;2023-04-08T08:45:52;150522.69;;;6.87;100.00
44926;BME280;30662;51.210;7.656;2023-04-08T08:48:18;150578.28;;;7.10;100.00
44926;BME280;30662;51.210;7.656;2023-04-08T08:50:44;150613.59;;;7.24;100.00
44926;BME280;30662;51.210;7.656;2023-04-08T08:53:10;150573.22;;;7.08;100.00
44926;BME280;30662;51.210;7.656;2023-04-08T08:55:37;150589.63;;;7.14;100.00
44926;BME280;30662;51.210;7.656;2023-04-08T08:58:27;150664.13;;;7.44;100.00
44926;BME280;30662;51.210;7.656;2023-04-08T09:00:53;150694.47;;;7.57;100.00
44926;BME280;30662;51.210;7.656;2023-04-08T09:03:26;150695.72;;;7.57;100.00
44926;BME280;30662;51.210;7.656;2023-04-08T09:08:40;150676.78;;;7.50;100.00
44926;BME280;30662;51.210;7.656;2023-04-08T09:13:41;150662.88;;;7.44;100.00
44926;BME280;30662;51.210;7.656;2023-04-08T09:16:09;150681.81;;;7.52;100.00
44926;BME280;30662;51.210;7.656;2023-04-08T09:18:37;150616.16;;;7.25;100.00
44926;BME280;30662;51.210;7.656;2023-04-08T09:21:04;150621.22;;;7.27;100.00
44926;BME280;30662;51.210;7.656;2023-04-08T09:26:25;150599.75;;;7.18;100.00
44926;BME280;30662;51.210;7.656;2023-04-08T09:29:00;150546.72;;;6.97;100.00
44926;BME280;30662;51.210;7.656;2023-04-08T09:31:40;150563.13;;;7.04;100.00
44926;BME280;30662;51.210;7.656;2023-04-08T09:34:13;150582.06;;;7.11;100.00
44926;BME280;30662;51.210;7.656;2023-04-08T09:36:44;150527.78;;;6.89;100.00
44926;BME280;30662;51.210;7.656;2023-04-08T09:39:10;150491.19;;;6.75;100.00
44926;BME280;30662;51.210;7.656;2023-04-08T09:41:39;150488.66;;;6.74;100.00
44926;BME280;30662;51.210;7.656;2023-04-08T09:44:07;150539.13;;;6.94;100.00
44926;BME280;30662;51.210;7.656;2023-04-08T09:47:00;150517.66;;;6.85;100.00
44926;BME280;30662;51.210;7.656;2023-04-08T09:52:10;150467.16;;;6.65;100.00
44926;BME280;30662;51.210;7.656;2023-04-08T09:54:54;150479.78;;;6.70;100.00
44926;BME280;30662;51.210;7.656;2023-04-08T09:57:51;150493.69;;;6.76;100.00
44926;BME280;30662;51.210;7.656;2023-04-08T10:00:23;150472.25;;;6.67;100.00
44926;BME280;30662;51.210;7.656;2023-04-08T10:03:18;150479.78;;;6.70;100.00
44926;BME280;30662;51.210;7.656;2023-04-08T10:05:49;150478.53;;;6.70;100.00
44926;BME280;30662;51.210;7.656;2023-04-08T10:08:17;150472.25;;;6.67;100.00
44926;BME280;30662;51.210;7.656;2023-04-08T10:10:44;150516.41;;;6.85;100.00
44926;BME280;30662;51.210;7.656;2023-04-08T10:13:12;150491.19;;;6.75;100.00
44926;BME280;30662;51.210;7.656;2023-04-08T10:15:39;150492.44;;;6.75;100.00
44926;BME280;30662;51.210;7.656;2023-04-08T10:23:03;150516.41;;;6.85;100.00
44926;BME280;30662;51.210;7.656;2023-04-08T10:25:36;150506.34;;;6.81;100.00
44926;BME280;30662;51.210;7.656;2023-04-08T10:30:45;150512.63;;;6.83;100.00
44926;BME280;30662;51.210;7.656;2023-04-08T10:33:22;150559.31;;;7.02;100.00
44926;BME280;30662;51.210;7.656;2023-04-08T10:36:09;150540.38;;;6.95;100.00
44926;BME280;30662;51.210;7.656;2023-04-08T10:38:40;150551.75;;;6.99;100.00
44926;BME280;30662;51.210;7.656;2023-04-08T10:41:10;150584.59;;;7.12;100.00
44926;BME280;30662;51.210;7.656;2023-04-08T10:43:38;150545.47;;;6.97;100.00
44926;BME280;30662;51.210;7.656;2023-04-08T10:46:04;150577.00;;;7.09;100.00
44926;BME280;30662;51.210;7.656;2023-04-08T10:48:31;150582.06;;;7.11;100.00
44926;BME280;30662;51.210;7.656;2023-04-08T10:50:59;150582.06;;;7.11;100.00
44926;BME280;30662;51.210;7.656;2023-04-08T10:53:30;150593.41;;;7.16;100.00
44926;BME280;30662;51.210;7.656;2023-04-08T10:56:07;150627.50;;;7.30;100.00
44926;BME280;30662;51.210;7.656;2023-04-08T10:58:34;150622.47;;;7.28;100.00
44926;BME280;30662;51.210;7.656;2023-04-08T11:01:05;150599.75;;;7.18;100.00
44926;BME280;30662;51.210;7.656;2023-04-08T11:03:33;150537.84;;;6.94;100.00
44926;BME280;30662;51.210;7.656;2023-04-08T11:06:00;150520.19;;;6.86;100.00
44926;BME280;30662;51.210;7.656;2023-04-08T11:08:28;150539.13;;;6.94;100.00
44926;BME280;30662;51.210;7.656;2023-04-08T11:10:54;150574.47;;;7.08;100.00
44926;BME280;30662;51.210;7.656;2023-04-08T11:13:21;150650.28;;;7.39;100.00
44926;BME280;30662;51.210;7.656;2023-04-08T11:15:49;150640.16;;;7.35;100.00
44926;BME280;30662;51.210;7.656;2023-04-08T11:18:15;150704.59;;;7.61;100.00
44926;BME280;30662;51.210;7.656;2023-04-08T11:20:43;150787.94;;;7.94;100.00
44926;BME280;30662;51.210;7.656;2023-04-08T11:23:13;150884.00;;;8.33;100.00
44926;BME280;30662;51.210;7.656;2023-04-08T11:25:42;150967.44;;;8.67;100.00
44926;BME280;30662;51.210;7.656;2023-04-08T11:28:13;150976.31;;;8.70;100.00
44926;BME280;30662;51.210;7.656;2023-04-08T11:30:40;150939.66;;;8.55;100.00
44926;BME280;30662;51.210;7.656;2023-04-08T11:33:07;151016.75;;;8.87;100.00
44926;BME280;30662;51.210;7.656;2023-04-08T11:35:33;150988.94;;;8.75;100.00
44926;BME280;30662;51.210;7.656;2023-04-08T11:37:59;150903.00;;;8.41;100.00
44926;BME280;30662;51.210;7.656;2023-04-08T11:40:29;150986.41;;;8.74;100.00
44926;BME280;30662;51.210;7.656;2023-04-08T11:42:55;151016.75;;;8.87;100.00
44926;BME280;30662;51.210;7.656;2023-04-08T11:45:21;151048.38;;;8.99;100.00
44926;BME280;30662;51.210;7.656;2023-04-08T11:47:47;151078.69;;;9.11;100.00
44926;BME280;30662;51.210;7.656;2023-04-08T11:50:24;151061.00;;;9.04;100.00
44926;BME280;30662;51.210;7.656;2023-04-08T11:52:52;151093.88;;;9.18;100.00
44926;BME280;30662;51.210;7.656;2023-04-08T11:55:26;151107.81;;;9.23;100.00
44926;BME280;30662;51.210;7.656;2023-04-08T11:57:54;151135.66;;;9.34;100.00
44926;BME280;30662;51.210;7.656;2023-04-08T12:00:21;151116.63;;;9.27;100.00
44926;BME280;30662;51.210;7.656;2023-04-08T12:02:47;151179.91;;;9.52;100.00
44926;BME280;30662;51.210;7.656;2023-04-08T12:05:14;151272.25;;;9.89;100.00
44926;BME280;30662;51.210;7.656;2023-04-08T12:07:41;151306.41;;;10.03;100.00
44926;BME280;30662;51.210;7.656;2023-04-08T12:10:11;151222.91;;;9.70;100.00
44926;BME280;30662;51.210;7.656;2023-04-08T12:12:37;151139.44;;;9.36;100.00
44926;BME280;30662;51.210;7.656;2023-04-08T12:15:04;151163.47;;;9.46;100.00
44926;BME280;30662;51.210;7.656;2023-04-08T12:17:30;151243.19;;;9.78;100.00
44926;BME280;30662;51.210;7.656;2023-04-08T12:19:56;151321.63;;;10.09;100.00
44926;BME280;30662;51.210;7.656;2023-04-08T12:22:23;151245.69;;;9.79;100.00
44926;BME280;30662;51.210;7.656;2023-04-08T12:24:49;151281.13;;;9.93;100.00
44926;BME280;30662;51.210;7.656;2023-04-08T12:27:15;151306.41;;;10.03;100.00
44926;BME280;30662;51.210;7.656;2023-04-08T12:29:41;151355.84;;;10.23;100.00
44926;BME280;30662;51.210;7.656;2023-04-08T12:32:07;151281.13;;;9.93;100.00
44926;BME280;30662;51.210;7.656;2023-04-08T12:34:33;151264.69;;;9.86;100.00
44926;BME280;30662;51.210;7.656;2023-04-08T12:36:59;151260.84;;;9.85;100.00
44926;BME280;30662;51.210;7.656;2023-04-08T12:39:25;151303.91;;;10.02;100.00
44926;BME280;30662;51.210;7.656;2023-04-08T12:41:51;151177.38;;;9.51;100.00
44926;BME280;30662;51.210;7.656;2023-04-08T12:44:17;151129.31;;;9.32;100.00
44926;BME280;30662;51.210;7.656;2023-04-08T12:46:44;151055.94;;;9.02;100.00
44926;BME280;30662;51.210;7.656;2023-04-08T12:49:11;151039.50;;;8.96;100.00
44926;BME280;30662;51.210;7.656;2023-04-08T12:51:37;151023.06;;;8.89;100.00
44926;BME280;30662;51.210;7.656;2023-04-08T12:54:04;150957.38;;;8.63;100.00
44926;BME280;30662;51.210;7.656;2023-04-08T12:56:31;150911.84;;;8.44;100.00
44926;BME280;30662;51.210;7.656;2023-04-08T12:58:57;150928.28;;;8.51;100.00
44926;BME280;30662;51.210;7.656;2023-04-08T13:01:24;150958.63;;;8.63;100.00
44926;BME280;30662;51.210;7.656;2023-04-08T13:03:50;150904.28;;;8.41;100.00
44926;BME280;30662;51.210;7.656;2023-04-08T13:06:16;150828.34;;;8.11;100.00
44926;BME280;30662;51.210;7.656;2023-04-08T13:08:42;150787.94;;;7.94;100.00
44926;BME280;30662;51.210;7.656;2023-04-08T13:11:08;150813.22;;;8.05;100.00
44926;BME280;30662;51.210;7.656;2023-04-08T13:13:34;150871.34;;;8.28;100.00
44926;BME280;30662;51.210;7.656;2023-04-08T13:16:01;150889.09;;;8.35;100.00